Time;durP1;ratioP1;P1;durP2;ratioP2;P2;SDS_P1;SDS_P2;PMS_P1;PMS_P2;Temp;Humidity;BMP_temperature;BMP_pressure;BME280_temperature;BME280_humidity;BME280_pressure;Samples;Min_cycle;Max_cycle;Signal;HPM_P1;HPM_P2
2023/11/16 00:01:49;;;;;;;3.17;0.90;;;;;;;;;;5099003;28;20085;-68
2023/11/16 00:04:15;;;;;;;5.65;0.93;;;;;;;;;;5087346;28;20072;-66
2023/11/16 00:06:42;;;;;;;7.68;1.10;;;;;;;;;;5095004;28;20090;-66
2023/11/16 00:09:09;;;;;;;3.90;1.02;;;;;;;;;;5095208;28;20119;-66
2023/11/16 00:11:40;;;;;;;10.98;1.38;;;;;;;;;;5095873;28;20052;-63
2023/11/16 00:14:10;;;;;;;5.78;1.38;;;;;;;;;;5081461;28;20044;-65
2023/11/16 00:16:37;;;;;;;8.90;1.20;;;;;;;;;;5082459;28;20105;-63
2023/11/16 00:19:05;;;;;;;7.55;1.58;;;;;;;;;;5081313;28;20214;-65
2023/11/16 00:21:32;;;;;;;4.18;1.20;;;;;;;;;;5062803;28;20048;-64
2023/11/16 00:23:59;;;;;;;11.07;1.63;;;;;;;;;;5066264;28;20048;-66
2023/11/16 00:26:27;;;;;;;7.60;1.10;;;;;;;;;;5074546;28;20052;-65
2023/11/16 00:28:56;;;;;;;1.92;0.88;;;;;;;;;;5078427;28;20067;-63
2023/11/16 00:31:23;;;;;;;;;;;;;;;;;;5084445;28;20087;-62
2023/11/16 00:33:50;;;;;;;7.68;1.05;;;;;;;;;;5081543;28;19924;-63
2023/11/16 00:36:18;;;;;;;8.02;1.10;;;;;;;;;;5073428;28;20155;-66
2023/11/16 00:38:44;;;;;;;3.38;1.00;;;;;;;;;;5081644;28;20062;-68
2023/11/16 00:41:15;;;;;;;5.35;1.08;;;;;;;;;;5082800;28;20120;-65
2023/11/16 00:43:41;;;;;;;6.28;1.00;;;;;;;;;;5071650;28;20612;-65
2023/11/16 00:46:11;;;;;;;5.00;0.98;;;;;;;;;;5059583;28;20056;-65
2023/11/16 00:48:39;;;;;;;4.43;0.75;;;;;;;;;;5059198;28;20052;-63
2023/11/16 00:51:07;;;;;;;10.30;1.10;;;;;;;;;;5079698;28;20056;-65
2023/11/16 00:53:34;;;;;;;4.20;1.20;;;;;;;;;;5082332;28;20503;-66
2023/11/16 00:56:02;;;;;;;5.47;1.23;;;;;;;;;;5064451;28;20076;-65
2023/11/16 00:58:32;;;;;;;10.27;1.38;;;;;;;;;;5045207;28;20068;-66
2023/11/16 01:00:59;;;;;;;6.85;0.90;;;;;;;;;;5067725;28;20040;-63
2023/11/16 01:03:27;;;;;;;7.05;0.95;;;;;;;;;;5079141;28;20048;-62
2023/11/16 01:05:54;;;;;;;4.80;1.08;;;;;;;;;;5081182;28;20060;-63
2023/11/16 01:08:21;;;;;;;7.13;1.08;;;;;;;;;;5051563;28;20069;-66
2023/11/16 01:10:49;;;;;;;5.05;1.00;;;;;;;;;;5080865;28;20044;-66
2023/11/16 01:13:23;;;;;;;9.45;1.25;;;;;;;;;;5083150;28;20048;-64
2023/11/16 01:15:50;;;;;;;5.22;1.00;;;;;;;;;;5082331;28;20079;-64
2023/11/16 01:18:17;;;;;;;7.93;1.35;;;;;;;;;;5069495;28;20056;-66
2023/11/16 01:20:45;;;;;;;4.68;1.02;;;;;;;;;;5082130;28;20072;-66
2023/11/16 01:23:12;;;;;;;4.38;0.90;;;;;;;;;;5083425;28;20351;-65
2023/11/16 01:25:40;;;;;;;4.90;0.90;;;;;;;;;;5079700;28;20070;-67
2023/11/16 01:28:08;;;;;;;8.93;1.38;;;;;;;;;;5073512;28;20047;-66
2023/11/16 01:30:35;;;;;;;6.47;1.20;;;;;;;;;;5079013;28;20052;-65
2023/11/16 01:33:04;;;;;;;4.47;0.85;;;;;;;;;;5082903;28;20048;-66
2023/11/16 01:35:31;;;;;;;7.57;1.13;;;;;;;;;;5084958;28;20052;-66
2023/11/16 01:37:58;;;;;;;7.53;1.30;;;;;;;;;;5078380;28;20052;-65
2023/11/16 01:40:27;;;;;;;7.65;1.33;;;;;;;;;;5072970;28;20151;-64
2023/11/16 01:42:56;;;;;;;4.82;0.95;;;;;;;;;;5081831;28;20048;-64
2023/11/16 01:45:34;;;;;;;6.18;1.15;;;;;;;;;;5080922;28;20052;-65
2023/11/16 01:48:06;;;;;;;2.22;0.68;;;;;;;;;;5076793;28;20056;-64
2023/11/16 01:50:35;;;;;;;5.60;1.10;;;;;;;;;;5080369;28;20059;-66
2023/11/16 01:53:05;;;;;;;1.83;0.85;;;;;;;;;;5081072;28;20071;-64
2023/11/16 01:55:34;;;;;;;4.47;1.17;;;;;;;;;;5073549;28;20082;-64
2023/11/16 01:58:04;;;;;;;5.40;1.23;;;;;;;;;;5072412;28;20225;-64
2023/11/16 02:00:33;;;;;;;5.22;1.23;;;;;;;;;;5075434;28;20048;-65
2023/11/16 02:03:01;;;;;;;4.72;1.10;;;;;;;;;;5080279;28;20103;-66
2023/11/16 02:05:28;;;;;;;5.20;1.20;;;;;;;;;;5082160;28;20079;-65
2023/11/16 02:07:54;;;;;;;8.18;1.58;;;;;;;;;;5076502;28;20047;-65
2023/11/16 02:10:22;;;;;;;3.03;1.13;;;;;;;;;;5074238;28;20190;-64
2023/11/16 02:12:53;;;;;;;4.05;1.00;;;;;;;;;;5068713;28;20049;-66
2023/11/16 02:15:19;;;;;;;7.30;1.60;;;;;;;;;;5080222;28;20075;-66
2023/11/16 02:17:46;;;;;;;2.28;1.00;;;;;;;;;;5071998;28;20080;-64
2023/11/16 02:20:13;;;;;;;6.03;1.30;;;;;;;;;;5056935;28;20090;-66
2023/11/16 02:22:40;;;;;;;3.25;1.20;;;;;;;;;;5062586;28;20052;-66
2023/11/16 02:25:11;;;;;;;4.82;1.42;;;;;;;;;;5059219;28;20048;-64
2023/11/16 02:27:37;;;;;;;7.13;1.20;;;;;;;;;;5047281;28;20062;-66
2023/11/16 02:30:05;;;;;;;4.80;1.23;;;;;;;;;;5075478;28;20055;-65
2023/11/16 02:32:32;;;;;;;3.77;1.17;;;;;;;;;;5080197;28;20090;-64
2023/11/16 02:34:58;;;;;;;4.13;1.13;;;;;;;;;;5082561;28;20373;-65
2023/11/16 02:37:25;;;;;;;3.80;1.23;;;;;;;;;;5058398;28;20121;-66
2023/11/16 02:39:51;;;;;;;3.17;1.05;;;;;;;;;;5079183;28;20052;-66
2023/11/16 02:42:19;;;;;;;1.65;0.73;;;;;;;;;;5072755;28;20074;-64
2023/11/16 02:44:47;;;;;;;2.17;1.00;;;;;;;;;;5073109;28;20079;-63
2023/11/16 02:47:14;;;;;;;5.65;1.08;;;;;;;;;;5075260;28;20127;-63
2023/11/16 02:49:42;;;;;;;4.40;0.90;;;;;;;;;;5084705;28;20060;-65
2023/11/16 02:52:10;;;;;;;7.72;0.80;;;;;;;;;;5072817;28;20048;-65
2023/11/16 02:54:37;;;;;;;1.53;0.60;;;;;;;;;;5095244;28;20068;-63
2023/11/16 02:57:06;;;;;;;6.35;1.20;;;;;;;;;;5076855;28;20063;-66
2023/11/16 02:59:34;;;;;;;2.28;1.00;;;;;;;;;;5079506;28;20055;-65
2023/11/16 03:02:04;;;;;;;8.02;1.20;;;;;;;;;;5077436;28;20097;-68
2023/11/16 03:04:31;;;;;;;3.72;1.00;;;;;;;;;;5058956;28;20056;-64
2023/11/16 03:06:57;;;;;;;4.15;1.33;;;;;;;;;;5066691;28;20056;-65
2023/11/16 03:09:24;;;;;;;6.97;1.27;;;;;;;;;;5075378;28;20060;-64
2023/11/16 03:11:51;;;;;;;3.40;0.75;;;;;;;;;;5064991;28;20055;-66
2023/11/16 03:14:18;;;;;;;3.88;0.88;;;;;;;;;;5067063;28;20060;-64
2023/11/16 03:16:47;;;;;;;2.47;0.70;;;;;;;;;;5079964;28;20048;-62
2023/11/16 03:19:14;;;;;;;9.60;1.17;;;;;;;;;;5078489;28;20135;-63
2023/11/16 03:21:41;;;;;;;5.32;1.25;;;;;;;;;;5079213;28;20056;-63
2023/11/16 03:24:08;;;;;;;7.60;1.00;;;;;;;;;;5066545;28;20051;-66
2023/11/16 03:26:35;;;;;;;2.10;1.08;;;;;;;;;;5079904;28;20436;-66
2023/11/16 03:29:02;;;;;;;5.95;1.13;;;;;;;;;;5079699;28;20136;-66
2023/11/16 03:31:29;;;;;;;3.65;1.10;;;;;;;;;;5096644;28;20056;-64
2023/11/16 03:33:57;;;;;;;3.72;1.02;;;;;;;;;;5090298;28;20076;-65
2023/11/16 03:36:24;;;;;;;4.65;1.33;;;;;;;;;;5076274;28;20056;-65
2023/11/16 03:38:51;;;;;;;5.97;1.33;;;;;;;;;;5079029;28;20048;-66
2023/11/16 03:41:19;;;;;;;6.15;1.48;;;;;;;;;;5081811;28;20092;-65
2023/11/16 03:43:46;;;;;;;4.50;1.27;;;;;;;;;;5073790;28;20072;-63
2023/11/16 03:46:12;;;;;;;3.58;1.00;;;;;;;;;;5073152;28;20066;-66
2023/11/16 03:48:39;;;;;;;5.38;1.55;;;;;;;;;;5081684;28;20104;-66
2023/11/16 03:51:08;;;;;;;7.13;1.30;;;;;;;;;;5085276;28;20079;-65
2023/11/16 03:53:35;;;;;;;5.47;1.40;;;;;;;;;;5066615;28;20056;-64
2023/11/16 03:56:04;;;;;;;4.90;1.10;;;;;;;;;;5046794;28;20049;-66
2023/11/16 03:58:30;;;;;;;4.97;1.10;;;;;;;;;;5061272;28;20060;-67
2023/11/16 04:00:57;;;;;;;2.58;0.90;;;;;;;;;;5082407;28;20075;-66
2023/11/16 04:03:24;;;;;;;6.68;1.33;;;;;;;;;;5082874;28;20059;-63
2023/11/16 04:05:50;;;;;;;1.42;0.80;;;;;;;;;;5078022;28;20048;-65
2023/11/16 04:08:18;;;;;;;4.75;1.40;;;;;;;;;;5074950;28;20047;-64
2023/11/16 04:10:45;;;;;;;5.35;1.20;;;;;;;;;;5085031;28;20059;-63
2023/11/16 04:13:12;;;;;;;3.30;1.00;;;;;;;;;;5083131;28;20053;-67
2023/11/16 04:15:39;;;;;;;5.18;1.33;;;;;;;;;;5078611;28;20094;-67
2023/11/16 04:18:06;;;;;;;2.60;1.00;;;;;;;;;;5066999;28;20052;-64
2023/11/16 04:20:34;;;;;;;2.65;1.20;;;;;;;;;;5079432;28;20051;-63
2023/11/16 04:23:00;;;;;;;4.57;1.03;;;;;;;;;;5082249;28;20078;-65
2023/11/16 04:25:31;;;;;;;3.35;1.00;;;;;;;;;;5063792;28;20303;-67
2023/11/16 04:28:00;;;;;;;5.10;1.30;;;;;;;;;;5062194;28;20563;-64
2023/11/16 04:30:28;;;;;;;;;;;;;;;;;;5058785;28;20057;-62
2023/11/16 04:32:55;;;;;;;2.35;1.10;;;;;;;;;;5082877;28;19966;-66
2023/11/16 04:35:22;;;;;;;5.75;1.23;;;;;;;;;;5077380;28;20062;-62
2023/11/16 04:37:49;;;;;;;3.28;1.08;;;;;;;;;;5084682;28;20051;-64
2023/11/16 04:40:16;;;;;;;4.32;1.42;;;;;;;;;;5073656;28;20109;-64
2023/11/16 04:42:44;;;;;;;2.42;1.10;;;;;;;;;;5081708;28;20132;-64
2023/11/16 04:45:11;;;;;;;5.45;1.20;;;;;;;;;;5085523;28;20151;-65
2023/11/16 04:47:40;;;;;;;4.78;1.52;;;;;;;;;;5083534;28;20091;-67
2023/11/16 04:50:09;;;;;;;4.68;1.27;;;;;;;;;;5064546;28;20147;-66
2023/11/16 04:52:36;;;;;;;4.35;1.48;;;;;;;;;;5063488;28;20082;-65
2023/11/16 04:55:03;;;;;;;1.98;1.05;;;;;;;;;;5064754;28;20083;-68
2023/11/16 04:57:30;;;;;;;5.22;1.40;;;;;;;;;;5083631;28;20060;-68
2023/11/16 04:59:58;;;;;;;5.50;1.35;;;;;;;;;;5081176;28;20082;-66
2023/11/16 05:02:25;;;;;;;3.13;1.33;;;;;;;;;;5079524;28;20051;-65
2023/11/16 05:04:55;;;;;;;5.28;1.45;;;;;;;;;;5047530;28;20087;-66
2023/11/16 05:07:22;;;;;;;6.18;1.77;;;;;;;;;;5063092;28;20114;-67
2023/11/16 05:09:49;;;;;;;8.68;2.08;;;;;;;;;;5079748;28;20059;-67
2023/11/16 05:12:15;;;;;;;4.65;1.33;;;;;;;;;;5079582;28;20052;-65
2023/11/16 05:14:41;;;;;;;4.00;1.50;;;;;;;;;;5077705;28;20047;-66
2023/11/16 05:17:09;;;;;;;5.00;1.88;;;;;;;;;;5081846;28;20070;-66
2023/11/16 05:19:36;;;;;;;4.30;1.83;;;;;;;;;;5064491;28;20553;-66
2023/11/16 05:22:05;;;;;;;6.72;2.47;;;;;;;;;;5075226;28;20094;-65
2023/11/16 05:24:31;;;;;;;3.80;1.75;;;;;;;;;;5078915;28;20052;-63
2023/11/16 05:27:02;;;;;;;7.65;2.00;;;;;;;;;;5081921;28;20139;-63
2023/11/16 05:29:29;;;;;;;5.80;2.30;;;;;;;;;;5079739;28;20105;-67
2023/11/16 05:31:56;;;;;;;6.40;2.40;;;;;;;;;;5081432;28;20147;-65
2023/11/16 05:34:27;;;;;;;6.32;2.45;;;;;;;;;;5072502;28;20056;-66
2023/11/16 05:36:54;;;;;;;5.88;2.25;;;;;;;;;;5081261;28;20052;-67
2023/11/16 05:39:21;;;;;;;7.43;2.72;;;;;;;;;;5080569;28;20051;-64
2023/11/16 05:41:48;;;;;;;7.15;2.13;;;;;;;;;;5098213;28;20136;-65
2023/11/16 05:44:14;;;;;;;5.72;2.28;;;;;;;;;;5056108;28;20138;-65
2023/11/16 05:46:41;;;;;;;4.45;2.08;;;;;;;;;;5066024;28;20067;-64
2023/11/16 05:49:09;;;;;;;7.32;2.15;;;;;;;;;;5093132;28;20435;-63
2023/11/16 05:51:37;;;;;;;5.25;2.20;;;;;;;;;;5076722;28;20101;-64
2023/11/16 05:54:05;;;;;;;8.07;2.10;;;;;;;;;;5081799;28;20052;-65
2023/11/16 05:56:32;;;;;;;9.10;2.17;;;;;;;;;;5066682;28;20048;-64
2023/11/16 05:58:58;;;;;;;5.13;2.25;;;;;;;;;;5076205;28;20060;-66
2023/11/16 06:01:25;;;;;;;4.72;1.90;;;;;;;;;;5075708;28;20072;-63
2023/11/16 06:03:52;;;;;;;7.68;1.88;;;;;;;;;;5072000;28;20087;-62
2023/11/16 06:06:19;;;;;;;9.05;2.10;;;;;;;;;;5069023;28;20055;-64
2023/11/16 06:08:47;;;;;;;5.60;1.80;;;;;;;;;;5076507;28;20090;-67
2023/11/16 06:11:15;;;;;;;4.28;1.77;;;;;;;;;;5075793;28;20052;-65
2023/11/16 06:13:42;;;;;;;8.10;2.03;;;;;;;;;;5061378;28;20139;-63
2023/11/16 06:16:12;;;;;;;4.95;1.95;;;;;;;;;;5061172;28;20100;-66
2023/11/16 06:18:39;;;;;;;5.57;1.90;;;;;;;;;;5070470;28;20152;-63
2023/11/16 06:21:06;;;;;;;8.18;2.38;;;;;;;;;;5067633;28;20060;-66
2023/11/16 06:23:33;;;;;;;6.68;1.88;;;;;;;;;;5050447;28;20526;-66
2023/11/16 06:26:02;;;;;;;5.70;2.10;;;;;;;;;;5072056;28;20071;-63
2023/11/16 06:28:28;;;;;;;7.25;2.70;;;;;;;;;;5079776;28;20158;-65
2023/11/16 06:30:55;;;;;;;15.68;6.22;;;;;;;;;;5069552;28;20150;-63
2023/11/16 06:33:22;;;;;;;21.63;10.07;;;;;;;;;;5059181;28;20060;-63
2023/11/16 06:35:49;;;;;;;12.25;5.53;;;;;;;;;;5048827;28;20054;-69
2023/11/16 06:38:16;;;;;;;10.95;5.00;;;;;;;;;;5056324;28;20126;-66
2023/11/16 06:40:43;;;;;;;12.05;4.13;;;;;;;;;;5079712;28;20138;-66
2023/11/16 06:43:12;;;;;;;7.35;2.30;;;;;;;;;;5080848;28;20155;-64
2023/11/16 06:45:40;;;;;;;7.22;2.63;;;;;;;;;;5075773;28;20047;-65
2023/11/16 06:48:07;;;;;;;4.53;2.25;;;;;;;;;;5071906;28;20087;-65
2023/11/16 06:50:34;;;;;;;6.45;2.65;;;;;;;;;;5079631;28;20083;-67
2023/11/16 06:53:05;;;;;;;9.00;3.42;;;;;;;;;;5079786;28;20104;-67
2023/11/16 06:55:33;;;;;;;8.57;3.65;;;;;;;;;;5066892;28;20151;-66
2023/11/16 06:58:00;;;;;;;18.40;6.93;;;;;;;;;;5075852;28;20063;-65
2023/11/16 07:00:30;;;;;;;10.40;4.80;;;;;;;;;;5075716;28;20121;-64
2023/11/16 07:02:57;;;;;;;23.25;7.13;;;;;;;;;;5081426;28;20151;-63
2023/11/16 07:05:25;;;;;;;12.00;3.75;;;;;;;;;;5070441;28;20052;-66
2023/11/16 07:07:52;;;;;;;8.05;2.75;;;;;;;;;;5062238;28;20060;-68
2023/11/16 07:10:19;;;;;;;10.07;2.88;;;;;;;;;;5059640;28;20048;-65
2023/11/16 07:12:46;;;;;;;26.13;11.80;;;;;;;;;;5081270;28;20059;-67
2023/11/16 07:15:13;;;;;;;25.88;11.60;;;;;;;;;;5067515;28;20052;-66
2023/11/16 07:17:41;;;;;;;10.93;4.28;;;;;;;;;;5082376;28;20036;-70
2023/11/16 07:20:11;;;;;;;8.00;2.88;;;;;;;;;;5074122;28;20223;-68
2023/11/16 07:22:38;;;;;;;6.63;2.60;;;;;;;;;;5071109;28;20149;-65
2023/11/16 07:25:07;;;;;;;7.32;2.60;;;;;;;;;;5060909;28;20052;-68
2023/11/16 07:27:34;;;;;;;8.82;2.88;;;;;;;;;;5081303;28;20106;-71
2023/11/16 07:30:00;;;;;;;8.88;3.05;;;;;;;;;;5076005;28;20523;-67
2023/11/16 07:32:27;;;;;;;7.50;2.55;;;;;;;;;;5073896;28;20056;-68
2023/11/16 07:34:56;;;;;;;9.10;2.55;;;;;;;;;;5081077;28;20059;-69
2023/11/16 07:37:23;;;;;;;9.43;2.58;;;;;;;;;;5065073;28;20119;-66
2023/11/16 07:39:49;;;;;;;7.40;2.67;;;;;;;;;;5064694;28;20053;-66
2023/11/16 07:42:16;;;;;;;7.47;2.92;;;;;;;;;;5057003;28;20127;-64
2023/11/16 07:44:45;;;;;;;8.82;2.53;;;;;;;;;;5078205;28;20091;-64
2023/11/16 07:47:13;;;;;;;8.60;3.00;;;;;;;;;;5086385;28;20091;-67
2023/11/16 07:49:41;;;;;;;6.72;2.75;;;;;;;;;;5083098;28;20059;-69
2023/11/16 07:52:09;;;;;;;8.90;3.08;;;;;;;;;;5075648;28;20257;-67
2023/11/16 07:54:44;;;;;;;7.70;2.72;;;;;;;;;;5054988;28;20057;-69
2023/11/16 07:57:13;;;;;;;8.05;2.53;;;;;;;;;;5069078;28;20075;-65
2023/11/16 07:59:42;;;;;;;7.88;2.42;;;;;;;;;;5082952;28;20148;-66
2023/11/16 08:02:12;;;;;;;9.13;3.00;;;;;;;;;;5062089;28;20068;-66
2023/11/16 08:04:39;;;;;;;12.18;3.67;;;;;;;;;;5050998;28;20064;-67
2023/11/16 08:07:07;;;;;;;30.88;16.05;;;;;;;;;;5083503;28;20059;-65
2023/11/16 08:09:35;;;;;;;25.63;11.10;;;;;;;;;;5085754;28;20056;-67
2023/11/16 08:12:02;;;;;;;13.45;4.45;;;;;;;;;;5081042;28;20298;-67
2023/11/16 08:14:31;;;;;;;12.57;3.70;;;;;;;;;;5015530;28;20056;-69
2023/11/16 08:16:58;;;;;;;6.75;3.15;;;;;;;;;;5071501;28;20060;-69
2023/11/16 08:19:25;;;;;;;9.52;2.88;;;;;;;;;;5084381;28;20083;-67
2023/11/16 08:21:55;;;;;;;8.00;3.85;;;;;;;;;;5080356;28;20559;-63
2023/11/16 08:24:22;;;;;;;7.50;3.47;;;;;;;;;;5054707;28;20059;-65
2023/11/16 08:26:51;;;;;;;10.85;3.65;;;;;;;;;;5072563;28;20040;-66
2023/11/16 08:29:18;;;;;;;10.57;3.47;;;;;;;;;;5072530;28;20139;-63
2023/11/16 08:31:52;;;;;;;8.98;3.30;;;;;;;;;;5074207;28;20055;-67
2023/11/16 08:34:19;;;;;;;8.25;3.45;;;;;;;;;;5021554;28;20270;-66
2023/11/16 08:36:46;;;;;;;12.48;5.07;;;;;;;;;;5054569;28;20055;-63
2023/11/16 08:39:17;;;;;;;12.77;5.28;;;;;;;;;;5058547;28;20196;-66
2023/11/16 08:41:44;;;;;;;12.52;4.32;;;;;;;;;;5059215;28;20040;-61
2023/11/16 08:44:12;;;;;;;10.70;4.25;;;;;;;;;;5055003;28;20046;-64
2023/11/16 08:46:41;;;;;;;9.43;3.78;;;;;;;;;;5083978;28;20036;-65
2023/11/16 08:49:09;;;;;;;10.57;3.55;;;;;;;;;;5077556;28;20056;-63
2023/11/16 08:51:38;;;;;;;9.20;3.73;;;;;;;;;;5080732;28;20044;-69
2023/11/16 08:54:07;;;;;;;11.75;4.18;;;;;;;;;;5060865;28;20059;-65
2023/11/16 08:56:35;;;;;;;12.93;4.30;;;;;;;;;;5061734;28;20060;-64
2023/11/16 08:59:07;;;;;;;8.60;3.97;;;;;;;;;;5057015;28;20067;-70
2023/11/16 09:01:37;;;;;;;11.43;4.28;;;;;;;;;;5072794;28;20047;-66
2023/11/16 09:04:12;;;;;;;10.07;3.85;;;;;;;;;;5038916;28;20052;-69
2023/11/16 09:06:41;;;;;;;13.90;3.97;;;;;;;;;;5066267;28;20055;-69
2023/11/16 09:09:33;;;;;;;;;;;;;;;;;;5076419;28;20198;-65
2023/11/16 09:11:58;;;;;;;;;;;;;;;;;;5077028;28;19931;-63
2023/11/16 09:14:28;;;;;;;7.32;3.05;;;;;;;;;;5047708;28;19924;-65
2023/11/16 09:17:02;;;;;;;11.18;4.45;;;;;;;;;;5065490;28;20071;-69
2023/11/16 09:19:29;;;;;;;9.00;4.05;;;;;;;;;;5077768;28;20055;-66
2023/11/16 09:21:56;;;;;;;11.48;4.43;;;;;;;;;;5075469;28;20060;-65
2023/11/16 09:24:25;;;;;;;12.63;4.03;;;;;;;;;;5027697;28;20063;-66
2023/11/16 09:26:55;;;;;;;9.90;4.00;;;;;;;;;;5079413;28;20129;-65
2023/11/16 09:29:22;;;;;;;10.45;4.32;;;;;;;;;;5076415;28;20075;-67
2023/11/16 09:31:49;;;;;;;13.45;4.45;;;;;;;;;;5077890;28;20063;-66
2023/11/16 09:34:22;;;;;;;10.95;4.93;;;;;;;;;;5025963;28;20523;-70
2023/11/16 09:36:50;;;;;;;14.43;4.90;;;;;;;;;;5057589;28;20060;-65
2023/11/16 09:39:17;;;;;;;11.85;5.35;;;;;;;;;;5056371;28;20053;-65
2023/11/16 09:41:49;;;;;;;13.93;5.18;;;;;;;;;;5057659;28;20347;-63
2023/11/16 09:44:18;;;;;;;13.25;5.18;;;;;;;;;;5041539;28;20053;-65
2023/11/16 09:46:47;;;;;;;15.60;5.20;;;;;;;;;;5090550;28;20048;-69
2023/11/16 09:49:18;;;;;;;12.55;5.50;;;;;;;;;;5076252;28;20140;-65
2023/11/16 09:51:51;;;;;;;12.30;5.32;;;;;;;;;;5078289;28;20043;-64
2023/11/16 09:54:21;;;;;;;13.82;5.88;;;;;;;;;;5064100;28;20179;-66
2023/11/16 09:56:49;;;;;;;13.52;5.60;;;;;;;;;;5077731;28;20052;-64
2023/11/16 09:59:25;;;;;;;17.55;5.80;;;;;;;;;;5077445;28;20075;-65
2023/11/16 10:02:08;;;;;;;14.73;5.63;;;;;;;;;;5077180;28;20072;-65
2023/11/16 10:04:41;;;;;;;13.13;6.22;;;;;;;;;;5072178;28;20048;-67
2023/11/16 10:07:15;;;;;;;13.73;6.00;;;;;;;;;;5078574;28;20063;-63
2023/11/16 10:09:42;;;;;;;17.48;5.80;;;;;;;;;;5080613;28;20052;-66
2023/11/16 10:12:11;;;;;;;13.60;5.85;;;;;;;;;;5073683;28;20044;-65
2023/11/16 10:14:41;;;;;;;17.25;6.07;;;;;;;;;;5030704;28;20068;-66
2023/11/16 10:17:08;;;;;;;18.40;6.70;;;;;;;;;;5057302;28;20049;-64
2023/11/16 10:19:36;;;;;;;22.10;7.68;;;;;;;;;;5075659;28;20047;-64
2023/11/16 10:22:03;;;;;;;14.60;7.78;;;;;;;;;;5068465;28;20040;-66
2023/11/16 10:24:36;;;;;;;15.50;7.10;;;;;;;;;;5070554;28;20139;-67
2023/11/16 10:27:02;;;;;;;20.15;8.07;;;;;;;;;;5074774;28;20056;-67
2023/11/16 10:29:29;;;;;;;22.33;7.60;;;;;;;;;;5079413;28;20373;-63
2023/11/16 10:31:56;;;;;;;14.73;6.60;;;;;;;;;;5077038;28;20079;-67
2023/11/16 10:34:24;;;;;;;14.18;6.53;;;;;;;;;;5048692;28;20428;-66
2023/11/16 10:36:55;;;;;;;16.92;6.18;;;;;;;;;;5079343;28;20126;-65
2023/11/16 10:39:23;;;;;;;15.02;6.00;;;;;;;;;;5064777;28;20084;-62
2023/11/16 10:41:51;;;;;;;16.30;6.53;;;;;;;;;;5073950;28;20143;-66
2023/11/16 10:44:24;;;;;;;20.50;6.80;;;;;;;;;;5041509;28;20052;-65
2023/11/16 10:46:51;;;;;;;15.32;7.15;;;;;;;;;;5056260;28;20051;-67
2023/11/16 10:49:18;;;;;;;17.15;7.15;;;;;;;;;;5076851;28;20052;-63
2023/11/16 10:51:48;;;;;;;18.77;6.93;;;;;;;;;;5073902;28;20146;-64
2023/11/16 10:54:19;;;;;;;14.23;6.95;;;;;;;;;;5068254;28;20426;-66
2023/11/16 10:56:52;;;;;;;16.52;7.00;;;;;;;;;;5077588;28;20060;-65
2023/11/16 10:59:21;;;;;;;14.75;6.22;;;;;;;;;;5075677;28;20154;-65
2023/11/16 11:01:48;;;;;;;15.25;6.88;;;;;;;;;;5078829;28;20507;-66
2023/11/16 11:04:15;;;;;;;14.38;6.85;;;;;;;;;;5068995;28;20048;-65
2023/11/16 11:06:42;;;;;;;13.45;6.68;;;;;;;;;;5078299;28;20205;-62
2023/11/16 11:09:09;;;;;;;16.02;6.75;;;;;;;;;;5074361;28;20048;-65
2023/11/16 11:11:42;;;;;;;14.30;6.45;;;;;;;;;;5075230;28;20067;-64
2023/11/16 11:14:10;;;;;;;13.93;6.25;;;;;;;;;;5072025;28;20111;-66
2023/11/16 11:16:39;;;;;;;;;;;;;;;;;;5057474;28;20040;-67
2023/11/16 11:19:07;;;;;;;15.55;5.75;;;;;;;;;;5074953;28;19930;-63
2023/11/16 11:21:35;;;;;;;20.95;6.63;;;;;;;;;;5078884;28;20056;-66
2023/11/16 11:24:05;;;;;;;;;;;;;;;;;;5038844;28;20159;-70
2023/11/16 11:26:45;;;;;;;14.65;5.55;;;;;;;;;;5051793;28;19928;-65
2023/11/16 11:29:12;;;;;;;15.55;5.35;;;;;;;;;;5056439;28;20056;-67
2023/11/16 11:31:50;;;;;;;11.40;5.68;;;;;;;;;;5053674;28;20065;-64
2023/11/16 11:34:17;;;;;;;12.30;5.28;;;;;;;;;;5042819;28;20061;-64
2023/11/16 11:36:46;;;;;;;17.20;6.00;;;;;;;;;;5055563;28;20052;-63
2023/11/16 11:39:14;;;;;;;;;;;;;;;;;;5074853;28;20047;-67
2023/11/16 11:41:59;;;;;;;12.07;4.72;;;;;;;;;;5074446;28;19928;-65
2023/11/16 11:44:26;;;;;;;10.10;4.68;;;;;;;;;;5042903;28;20114;-65
2023/11/16 11:46:55;;;;;;;11.85;5.45;;;;;;;;;;5040016;28;20053;-68
2023/11/16 11:49:22;;;;;;;13.25;4.60;;;;;;;;;;5075132;28;20135;-62
2023/11/16 11:51:50;;;;;;;7.97;4.13;;;;;;;;;;5077643;28;20059;-66
2023/11/16 11:54:17;;;;;;;11.27;4.57;;;;;;;;;;5035594;28;20120;-65
2023/11/16 11:56:48;;;;;;;9.30;3.70;;;;;;;;;;5063075;28;20147;-65
2023/11/16 11:59:15;;;;;;;11.10;3.97;;;;;;;;;;5076849;28;20078;-64
2023/11/16 12:01:41;;;;;;;14.18;3.95;;;;;;;;;;5077148;28;20058;-64
2023/11/16 12:04:09;;;;;;;9.00;2.83;;;;;;;;;;5049887;28;20049;-66
2023/11/16 12:06:36;;;;;;;8.90;3.65;;;;;;;;;;5024885;28;20048;-62
2023/11/16 12:09:03;;;;;;;7.90;3.10;;;;;;;;;;5076541;28;20055;-64
2023/11/16 12:11:31;;;;;;;8.57;3.22;;;;;;;;;;5080155;28;20044;-67
2023/11/16 12:14:01;;;;;;;9.35;3.55;;;;;;;;;;5066995;28;20044;-65
2023/11/16 12:16:30;;;;;;;8.18;2.67;;;;;;;;;;5073756;28;20051;-65
2023/11/16 12:18:57;;;;;;;11.27;3.47;;;;;;;;;;5064632;28;20080;-68
2023/11/16 12:21:25;;;;;;;11.55;3.00;;;;;;;;;;5058061;28;20055;-66
2023/11/16 12:23:53;;;;;;;6.40;3.10;;;;;;;;;;5073552;28;20159;-66
2023/11/16 12:26:25;;;;;;;8.32;3.15;;;;;;;;;;5069963;28;20091;-63
2023/11/16 12:28:52;;;;;;;9.75;3.05;;;;;;;;;;5061778;28;20161;-65
2023/11/16 12:31:21;;;;;;;12.23;3.47;;;;;;;;;;5063171;28;20215;-66
2023/11/16 12:33:50;;;;;;;14.88;3.97;;;;;;;;;;5062316;28;20068;-66
2023/11/16 12:36:21;;;;;;;11.82;4.63;;;;;;;;;;5040686;28;20328;-66
2023/11/16 12:38:48;;;;;;;9.35;3.13;;;;;;;;;;5079105;28;20052;-67
2023/11/16 12:41:18;;;;;;;10.68;3.55;;;;;;;;;;5077294;28;20072;-65
2023/11/16 12:43:45;;;;;;;7.00;3.22;;;;;;;;;;5074408;28;20063;-65
2023/11/16 12:46:12;;;;;;;11.88;3.97;;;;;;;;;;5069734;28;20060;-65
2023/11/16 12:48:41;;;;;;;9.93;3.33;;;;;;;;;;5076058;28;20229;-67
2023/11/16 12:51:09;;;;;;;10.25;4.10;;;;;;;;;;5078136;28;20052;-63
2023/11/16 12:53:38;;;;;;;9.13;3.85;;;;;;;;;;5078883;28;20475;-68
2023/11/16 12:56:06;;;;;;;8.35;3.40;;;;;;;;;;5044627;28;20049;-65
2023/11/16 12:58:37;;;;;;;6.85;3.10;;;;;;;;;;5059718;28;20144;-67
2023/11/16 13:01:07;;;;;;;9.75;3.17;;;;;;;;;;5058385;28;20045;-65
2023/11/16 13:03:35;;;;;;;7.03;3.13;;;;;;;;;;5059244;28;20055;-63
2023/11/16 13:06:04;;;;;;;7.43;2.97;;;;;;;;;;5019648;28;20350;-67
2023/11/16 13:08:30;;;;;;;;;;;;;;;;;;5060063;28;20052;-66
2023/11/16 13:10:57;;;;;;;12.25;2.78;;;;;;;;;;5077727;28;19959;-65
2023/11/16 13:13:25;;;;;;;6.63;2.78;;;;;;;;;;5068405;28;20075;-67
2023/11/16 13:15:52;;;;;;;6.78;2.75;;;;;;;;;;5075911;28;20067;-63
2023/11/16 13:18:19;;;;;;;8.65;2.95;;;;;;;;;;5056659;28;20075;-64
2023/11/16 13:20:46;;;;;;;9.27;2.70;;;;;;;;;;5076972;28;20052;-64
2023/11/16 13:23:14;;;;;;;8.77;2.70;;;;;;;;;;5080201;28;20125;-65
2023/11/16 13:25:41;;;;;;;7.53;2.50;;;;;;;;;;5053633;28;20142;-65
2023/11/16 13:28:07;;;;;;;7.40;2.30;;;;;;;;;;5070276;28;20089;-67
2023/11/16 13:30:38;;;;;;;6.57;2.60;;;;;;;;;;5076803;28;20067;-65
2023/11/16 13:33:05;;;;;;;8.15;2.60;;;;;;;;;;5076642;28;20060;-62
2023/11/16 13:35:31;;;;;;;10.95;2.58;;;;;;;;;;5055022;28;20063;-64
2023/11/16 13:38:01;;;;;;;14.07;2.83;;;;;;;;;;5076365;28;20044;-62
2023/11/16 13:40:29;;;;;;;9.70;2.95;;;;;;;;;;5074421;28;20125;-66
2023/11/16 13:42:56;;;;;;;6.05;2.53;;;;;;;;;;5089033;28;20048;-66
2023/11/16 13:45:23;;;;;;;6.45;2.60;;;;;;;;;;5072499;28;20152;-67
2023/11/16 13:47:52;;;;;;;6.63;2.22;;;;;;;;;;5076702;28;20147;-63
2023/11/16 13:50:18;;;;;;;8.23;2.45;;;;;;;;;;5072082;28;20052;-63
2023/11/16 13:52:45;;;;;;;6.60;2.58;;;;;;;;;;5080346;28;20132;-65
2023/11/16 13:55:13;;;;;;;7.78;2.90;;;;;;;;;;5064411;28;20545;-68
2023/11/16 13:57:44;;;;;;;6.85;2.35;;;;;;;;;;5057496;28;20110;-65
2023/11/16 14:00:16;;;;;;;7.47;2.50;;;;;;;;;;5071899;28;20051;-67
2023/11/16 14:02:43;;;;;;;11.20;2.50;;;;;;;;;;5068989;28;20098;-63
2023/11/16 14:05:12;;;;;;;6.40;2.67;;;;;;;;;;5043127;28;20142;-68
2023/11/16 14:07:39;;;;;;;6.95;2.53;;;;;;;;;;5076884;28;20133;-67
2023/11/16 14:10:09;;;;;;;9.55;2.28;;;;;;;;;;5049133;28;20107;-62
2023/11/16 14:12:37;;;;;;;6.22;2.33;;;;;;;;;;5060838;28;20064;-70
2023/11/16 14:15:08;;;;;;;15.25;5.68;;;;;;;;;;5062674;28;20121;-65
2023/11/16 14:17:38;;;;;;;9.88;3.65;;;;;;;;;;5075298;28;20052;-65
2023/11/16 14:20:10;;;;;;;23.20;10.35;;;;;;;;;;5074767;28;20074;-66
2023/11/16 14:22:39;;;;;;;7.72;3.47;;;;;;;;;;5078249;28;20113;-64
2023/11/16 14:25:07;;;;;;;7.00;2.70;;;;;;;;;;5051516;28;20117;-67
2023/11/16 14:27:36;;;;;;;8.90;2.10;;;;;;;;;;5076276;28;20079;-68
2023/11/16 14:30:06;;;;;;;;;;;;;;;;;;5068152;28;20044;-64
2023/11/16 14:32:32;;;;;;;4.28;2.17;;;;;;;;;;5092973;28;20063;-64
2023/11/16 14:35:02;;;;;;;7.70;3.00;;;;;;;;;;5072506;28;20051;-64
2023/11/16 14:37:31;;;;;;;6.75;3.20;;;;;;;;;;5076877;28;20071;-63
2023/11/16 14:39:58;;;;;;;34.88;15.80;;;;;;;;;;5062542;28;20045;-69
2023/11/16 14:42:26;;;;;;;10.43;4.03;;;;;;;;;;5055586;28;20099;-65
2023/11/16 14:44:54;;;;;;;6.77;2.20;;;;;;;;;;5071724;28;20455;-65
2023/11/16 14:47:22;;;;;;;7.57;2.67;;;;;;;;;;5076197;28;20083;-66